createdAt,value
2023-11-04T00:01:44.619Z,5.40
2023-11-04T00:04:11.962Z,5.73
2023-11-04T00:06:39.342Z,6.33
2023-11-04T00:09:09.147Z,5.50
2023-11-04T00:11:38.010Z,5.77
2023-11-04T00:14:05.538Z,6.33
2023-11-04T00:16:32.735Z,6.53
2023-11-04T00:19:00.030Z,6.70
2023-11-04T00:21:28.070Z,6.07
2023-11-04T00:23:55.453Z,6.10
2023-11-04T00:26:22.639Z,5.50
2023-11-04T00:28:49.842Z,6.73
2023-11-04T00:31:17.018Z,5.93
2023-11-04T00:33:44.299Z,5.97
2023-11-04T00:36:12.275Z,5.50
2023-11-04T00:38:39.522Z,5.33
2023-11-04T00:41:07.950Z,5.33
2023-11-04T00:43:37.802Z,6.07
2023-11-04T00:46:05.197Z,5.40
2023-11-04T00:48:32.431Z,5.03
2023-11-04T00:50:59.759Z,5.37
2023-11-04T00:53:26.939Z,5.50
2023-11-04T00:55:54.222Z,5.17
2023-11-04T00:58:21.771Z,5.63
2023-11-04T01:00:49.134Z,5.53
2023-11-04T01:03:16.614Z,5.20
2023-11-04T01:05:44.089Z,5.40
2023-11-04T01:08:11.338Z,4.87
2023-11-04T01:10:38.616Z,6.13
2023-11-04T01:13:05.861Z,6.43
2023-11-04T01:15:33.156Z,6.40
2023-11-04T01:18:00.495Z,6.20
2023-11-04T01:20:29.741Z,5.07
2023-11-04T01:22:57.101Z,4.37
2023-11-04T01:25:24.351Z,4.97
2023-11-04T01:27:52.131Z,4.77
2023-11-04T01:30:19.582Z,4.93
2023-11-04T01:32:49.887Z,4.70
2023-11-04T01:35:17.246Z,4.37
2023-11-04T01:37:44.442Z,4.60
2023-11-04T01:40:12.617Z,4.57
2023-11-04T01:42:44.317Z,4.40
2023-11-04T01:45:11.997Z,4.87
2023-11-04T01:47:42.532Z,4.93
2023-11-04T01:50:10.367Z,4.40
2023-11-04T01:52:39.768Z,4.43
2023-11-04T01:55:10.541Z,4.63
2023-11-04T01:57:38.455Z,4.37
2023-11-04T02:00:06.658Z,5.37
2023-11-04T02:02:33.927Z,4.20
2023-11-04T02:05:01.878Z,4.47
2023-11-04T02:07:29.317Z,4.70
2023-11-04T02:09:56.716Z,4.47
2023-11-04T02:12:24.248Z,4.03
2023-11-04T02:14:55.396Z,4.80
2023-11-04T02:17:28.011Z,4.83
2023-11-04T02:19:56.895Z,5.13
2023-11-04T02:22:25.941Z,5.33
2023-11-04T02:24:53.429Z,5.73
2023-11-04T02:27:20.737Z,5.87
2023-11-04T02:29:49.793Z,5.43
2023-11-04T02:32:17.257Z,5.20
2023-11-04T02:34:44.630Z,5.70
2023-11-04T02:37:11.942Z,4.80
2023-11-04T02:39:39.220Z,4.77
2023-11-04T02:42:06.649Z,4.93
2023-11-04T02:44:34.265Z,4.67
2023-11-04T02:47:01.578Z,4.30
2023-11-04T02:49:28.814Z,4.33
2023-11-04T02:52:03.967Z,3.93
2023-11-04T02:54:36.433Z,4.13
2023-11-04T02:57:04.269Z,4.53
2023-11-04T02:59:31.884Z,4.03
2023-11-04T03:01:59.204Z,3.70
2023-11-04T03:04:27.146Z,3.97
2023-11-04T03:06:54.546Z,4.13
2023-11-04T03:09:22.414Z,3.30
2023-11-04T03:11:49.827Z,4.20
2023-11-04T03:14:17.409Z,4.27
2023-11-04T03:16:45.575Z,4.13
2023-11-04T03:19:12.833Z,4.23
2023-11-04T03:21:40.254Z,4.43
2023-11-04T03:24:07.799Z,4.20
2023-11-04T03:26:35.028Z,4.47
2023-11-04T03:29:02.299Z,4.00
2023-11-04T03:31:29.539Z,4.23
2023-11-04T03:33:56.924Z,4.30
2023-11-04T03:36:24.485Z,4.47
2023-11-04T03:38:51.987Z,4.50
2023-11-04T03:41:19.478Z,3.97
2023-11-04T03:43:46.702Z,4.63
2023-11-04T03:46:13.956Z,4.90
2023-11-04T03:48:41.303Z,4.40
2023-11-04T03:51:11.747Z,4.27
2023-11-04T03:53:39.039Z,4.50
2023-11-04T03:56:06.377Z,4.10
2023-11-04T03:58:33.590Z,3.73
2023-11-04T04:01:02.735Z,3.90
2023-11-04T04:03:29.968Z,4.17
2023-11-04T04:05:57.248Z,4.00
2023-11-04T04:08:24.465Z,4.67
2023-11-04T04:10:51.710Z,4.33
2023-11-04T04:13:18.981Z,3.30
2023-11-04T04:15:46.234Z,3.50
2023-11-04T04:18:13.617Z,3.40
2023-11-04T04:20:40.986Z,3.43
2023-11-04T04:23:08.555Z,3.30
2023-11-04T04:25:35.924Z,3.30
2023-11-04T04:28:03.141Z,3.77
2023-11-04T04:30:30.409Z,2.93
2023-11-04T04:32:57.771Z,3.00
2023-11-04T04:35:25.002Z,3.03
2023-11-04T04:37:52.181Z,3.33
2023-11-04T04:40:19.512Z,3.47
2023-11-04T04:42:46.727Z,3.00
2023-11-04T04:45:13.944Z,3.60
2023-11-04T04:47:41.481Z,3.13
2023-11-04T04:50:08.908Z,3.60
2023-11-04T04:52:36.812Z,3.33
2023-11-04T04:55:04.053Z,2.90
2023-11-04T04:57:32.253Z,3.40
2023-11-04T04:59:59.501Z,3.13
2023-11-04T05:02:26.751Z,3.23
2023-11-04T05:04:54.292Z,2.90
2023-11-04T05:07:21.516Z,3.33
2023-11-04T05:09:48.947Z,3.00
2023-11-04T05:12:16.270Z,2.80
2023-11-04T05:14:43.570Z,2.50
2023-11-04T05:17:10.992Z,2.70
2023-11-04T05:19:38.186Z,2.87
2023-11-04T05:22:05.406Z,2.50
2023-11-04T05:24:32.634Z,2.30
2023-11-04T05:27:02.216Z,2.90
2023-11-04T05:29:29.529Z,2.37
2023-11-04T05:31:56.843Z,2.00
2023-11-04T05:34:24.076Z,2.80
2023-11-04T05:36:52.503Z,2.40
2023-11-04T05:39:19.789Z,2.00
2023-11-04T05:41:46.973Z,2.17
2023-11-04T05:44:14.237Z,2.60
2023-11-04T05:46:41.392Z,1.93
2023-11-04T05:49:08.676Z,2.40
2023-11-04T05:51:37.774Z,2.30
2023-11-04T05:54:05.106Z,2.33
2023-11-04T05:56:32.509Z,2.50
2023-11-04T05:58:59.755Z,2.33
2023-11-04T06:01:27.277Z,2.37
2023-11-04T06:03:54.688Z,2.30
2023-11-04T06:06:22.521Z,2.50
2023-11-04T06:08:49.776Z,2.20
2023-11-04T06:11:17.838Z,2.60
2023-11-04T06:13:45.892Z,2.10
2023-11-04T06:16:13.045Z,2.40
2023-11-04T06:18:41.173Z,2.30
2023-11-04T06:21:09.176Z,1.90
2023-11-04T06:23:36.387Z,2.57
2023-11-04T06:26:03.557Z,2.33
2023-11-04T06:28:31.056Z,2.23
2023-11-04T06:30:58.525Z,1.97
2023-11-04T06:33:25.814Z,2.07
2023-11-04T06:35:53.038Z,2.50
2023-11-04T06:38:20.541Z,2.77
2023-11-04T06:40:47.844Z,2.80
2023-11-04T06:43:15.169Z,2.00
2023-11-04T06:45:42.526Z,2.00
2023-11-04T06:48:09.989Z,2.17
2023-11-04T06:50:37.629Z,2.77
2023-11-04T06:53:05.046Z,2.07
2023-11-04T06:55:34.351Z,2.43
2023-11-04T06:58:01.624Z,2.10
2023-11-04T07:00:29.099Z,11.57
2023-11-04T07:02:56.826Z,3.60
2023-11-04T07:05:24.862Z,2.67
2023-11-04T07:07:52.260Z,2.30
2023-11-04T07:10:19.659Z,2.33
2023-11-04T07:12:46.949Z,2.90
2023-11-04T07:15:14.201Z,2.70
2023-11-04T07:17:41.543Z,2.47
2023-11-04T07:20:10.152Z,2.90
2023-11-04T07:22:37.341Z,2.67
2023-11-04T07:25:04.841Z,2.53
2023-11-04T07:27:32.088Z,2.83
2023-11-04T07:29:59.305Z,2.83
2023-11-04T07:32:26.581Z,2.80
2023-11-04T07:34:54.030Z,2.37
2023-11-04T07:37:21.282Z,2.67
2023-11-04T07:39:48.515Z,2.80
2023-11-04T07:42:15.689Z,2.67
2023-11-04T07:44:42.920Z,3.00
2023-11-04T07:47:10.208Z,2.70
2023-11-04T07:49:37.608Z,2.77
2023-11-04T07:52:07.474Z,2.70
2023-11-04T07:54:34.882Z,3.47
2023-11-04T07:57:02.180Z,2.30
2023-11-04T07:59:29.450Z,2.70
2023-11-04T08:01:56.640Z,3.20
2023-11-04T08:04:25.850Z,2.67
2023-11-04T08:06:53.249Z,3.20
2023-11-04T08:09:20.793Z,2.47
2023-11-04T08:11:47.980Z,2.73
2023-11-04T08:14:15.278Z,2.60
2023-11-04T08:16:42.564Z,2.90
2023-11-04T08:19:09.857Z,3.23
2023-11-04T08:21:38.054Z,2.80
2023-11-04T08:24:05.556Z,2.60
2023-11-04T08:26:32.714Z,2.93
2023-11-04T08:28:59.897Z,2.60
2023-11-04T08:31:27.148Z,3.23
2023-11-04T08:33:56.176Z,2.87
2023-11-04T08:36:25.231Z,3.23
2023-11-04T08:38:52.490Z,3.20
2023-11-04T08:41:19.885Z,3.17
2023-11-04T08:43:49.120Z,3.33
2023-11-04T08:46:20.047Z,3.97
2023-11-04T08:48:47.678Z,4.10
2023-11-04T08:51:14.954Z,3.00
2023-11-04T08:53:42.168Z,2.80
2023-11-04T08:56:09.810Z,3.07
2023-11-04T08:58:37.051Z,3.57
2023-11-04T09:01:04.457Z,3.53
2023-11-04T09:03:31.730Z,3.13
2023-11-04T09:05:59.001Z,3.40
2023-11-04T09:08:26.257Z,3.50
2023-11-04T09:10:54.219Z,2.53
2023-11-04T09:13:22.451Z,4.37
2023-11-04T09:15:49.669Z,4.10
2023-11-04T09:18:19.913Z,4.23
2023-11-04T09:20:47.357Z,3.70
2023-11-04T09:23:14.568Z,2.93
2023-11-04T09:25:41.757Z,3.27
2023-11-04T09:28:08.960Z,3.77
2023-11-04T09:30:36.224Z,3.03
2023-11-04T09:33:03.641Z,3.13
2023-11-04T09:35:30.931Z,2.83
2023-11-04T09:37:58.200Z,2.83
2023-11-04T09:40:25.571Z,3.77
2023-11-04T09:42:53.000Z,3.40
2023-11-04T09:45:23.343Z,3.17
2023-11-04T09:47:50.941Z,3.37
2023-11-04T09:50:18.659Z,3.30
2023-11-04T09:52:52.827Z,3.00
2023-11-04T09:55:20.523Z,3.13
2023-11-04T09:57:48.592Z,3.33
2023-11-04T10:00:18.268Z,3.30
2023-11-04T10:02:46.457Z,3.73
2023-11-04T10:05:13.818Z,2.93
2023-11-04T10:07:44.167Z,2.83
2023-11-04T10:10:22.073Z,3.13
2023-11-04T10:12:55.706Z,3.00
2023-11-04T10:15:24.350Z,2.40
2023-11-04T10:17:51.948Z,2.90
2023-11-04T10:20:24.448Z,3.20
2023-11-04T10:22:51.792Z,3.73
2023-11-04T10:25:19.846Z,3.00
2023-11-04T10:27:47.731Z,2.97
2023-11-04T10:30:15.074Z,3.00
2023-11-04T10:32:46.055Z,2.90
2023-11-04T10:35:13.989Z,4.33
2023-11-04T10:37:45.899Z,5.07
2023-11-04T10:40:15.270Z,4.00
2023-11-04T10:42:49.835Z,3.37
2023-11-04T10:45:28.756Z,3.47
2023-11-04T10:48:07.236Z,4.50
2023-11-04T10:50:36.899Z,5.20
2023-11-04T10:53:15.621Z,3.80
2023-11-04T10:55:52.647Z,3.37
2023-11-04T10:58:37.631Z,3.50
2023-11-04T11:01:06.065Z,3.70
2023-11-04T11:03:34.398Z,3.33
2023-11-04T11:06:03.990Z,3.10
2023-11-04T11:08:31.461Z,2.87
2023-11-04T11:11:02.368Z,3.23
2023-11-04T11:13:33.551Z,2.47
2023-11-04T11:16:00.834Z,2.80
2023-11-04T11:18:28.668Z,2.80
2023-11-04T11:20:56.116Z,3.60
2023-11-04T11:23:28.035Z,3.33
2023-11-04T11:26:09.431Z,2.67
2023-11-04T11:28:39.936Z,2.77
2023-11-04T11:31:09.245Z,2.70
2023-11-04T11:33:36.614Z,2.67
2023-11-04T11:36:08.193Z,2.77
2023-11-04T11:38:36.576Z,2.87
2023-11-04T11:41:08.108Z,2.50
2023-11-04T11:43:35.936Z,2.17
2023-11-04T11:46:07.242Z,2.70
2023-11-04T11:48:42.224Z,2.70
2023-11-04T11:51:13.698Z,3.53
2023-11-04T11:53:43.613Z,3.03
2023-11-04T11:56:11.686Z,2.87
2023-11-04T11:58:38.973Z,2.30
2023-11-04T12:01:08.427Z,2.33
2023-11-04T12:03:37.046Z,2.20
2023-11-04T12:06:04.843Z,2.30
2023-11-04T12:08:32.356Z,2.47
2023-11-04T12:10:59.627Z,2.77
2023-11-04T12:13:26.951Z,2.43
2023-11-04T12:15:55.518Z,1.87
2023-11-04T12:18:23.096Z,2.07
2023-11-04T12:20:50.351Z,3.43
2023-11-04T12:23:17.609Z,3.07
2023-11-04T12:25:45.390Z,3.60
2023-11-04T12:28:12.691Z,3.50
2023-11-04T12:30:40.082Z,2.90
2023-11-04T12:33:07.681Z,1.70
2023-11-04T12:35:38.122Z,1.87
2023-11-04T12:38:05.623Z,1.50
2023-11-04T12:40:35.319Z,1.53
2023-11-04T12:43:07.302Z,1.80
2023-11-04T12:45:35.472Z,1.80
2023-11-04T12:48:03.206Z,2.13
2023-11-04T12:50:30.729Z,2.00
2023-11-04T12:53:02.323Z,3.93
2023-11-04T12:55:30.397Z,3.30
2023-11-04T12:57:57.711Z,4.60
2023-11-04T13:00:27.283Z,6.97
2023-11-04T13:02:54.499Z,6.47
2023-11-04T13:05:22.312Z,6.33
2023-11-04T13:07:49.553Z,4.47
2023-11-04T13:10:16.970Z,5.07
2023-11-04T13:12:44.318Z,4.40
2023-11-04T13:15:11.636Z,6.00
2023-11-04T13:17:39.042Z,4.43
2023-11-04T13:20:07.691Z,3.27
2023-11-04T13:22:35.050Z,3.50
2023-11-04T13:25:03.724Z,3.40
2023-11-04T13:27:31.124Z,3.23
2023-11-04T13:29:58.639Z,3.70
2023-11-04T13:32:25.968Z,3.70
2023-11-04T13:34:53.898Z,3.13
2023-11-04T13:37:21.755Z,3.93
2023-11-04T13:39:49.103Z,4.13
2023-11-04T13:42:16.451Z,3.43
2023-11-04T13:44:43.888Z,3.37
2023-11-04T13:47:11.275Z,4.00
2023-11-04T13:49:38.640Z,4.13
2023-11-04T13:52:05.991Z,3.83
2023-11-04T13:54:33.378Z,3.83
2023-11-04T13:57:00.626Z,5.73
2023-11-04T13:59:30.059Z,4.33
2023-11-04T14:01:58.650Z,5.20
2023-11-04T14:04:26.040Z,4.33
2023-11-04T14:06:53.671Z,5.70
2023-11-04T14:09:22.115Z,4.50
2023-11-04T14:11:49.374Z,5.63
2023-11-04T14:14:19.605Z,4.00
2023-11-04T14:16:48.226Z,3.37
2023-11-04T14:19:17.000Z,3.43
2023-11-04T14:21:44.443Z,3.73
2023-11-04T14:24:11.786Z,2.67
2023-11-04T14:26:40.972Z,4.50
2023-11-04T14:29:09.133Z,3.83
2023-11-04T14:31:36.418Z,4.73
2023-11-04T14:34:03.672Z,7.00
2023-11-04T14:36:30.863Z,5.37
2023-11-04T14:38:59.083Z,5.93
2023-11-04T14:41:26.437Z,7.60
2023-11-04T14:43:53.691Z,4.07
2023-11-04T14:46:23.100Z,4.33
2023-11-04T14:48:50.508Z,4.90
2023-11-04T14:51:18.016Z,3.90
2023-11-04T14:53:47.866Z,4.70
2023-11-04T14:56:16.588Z,5.47
2023-11-04T14:58:44.109Z,6.47
2023-11-04T15:01:11.545Z,4.30
2023-11-04T15:03:41.822Z,3.70
2023-11-04T15:06:09.562Z,3.57
2023-11-04T15:08:36.876Z,4.43
2023-11-04T15:11:04.352Z,4.47
2023-11-04T15:13:31.819Z,4.70
2023-11-04T15:15:59.231Z,5.07
2023-11-04T15:18:26.595Z,6.20
2023-11-04T15:20:54.016Z,5.37
2023-11-04T15:23:21.344Z,4.33
2023-11-04T15:25:48.840Z,5.60
2023-11-04T15:28:16.072Z,5.30
2023-11-04T15:30:43.434Z,6.53
2023-11-04T15:33:12.498Z,6.23
2023-11-04T15:35:41.058Z,5.70
2023-11-04T15:38:08.258Z,7.23
2023-11-04T15:40:35.490Z,5.30
2023-11-04T15:43:03.272Z,5.93
2023-11-04T15:45:32.613Z,6.07
2023-11-04T15:48:01.151Z,6.07
2023-11-04T15:50:28.383Z,6.33
2023-11-04T15:52:55.552Z,6.73
2023-11-04T15:55:23.222Z,8.07
2023-11-04T15:57:50.456Z,11.30
2023-11-04T16:00:17.831Z,11.73
2023-11-04T16:02:45.585Z,9.63
2023-11-04T16:05:13.052Z,9.33
2023-11-04T16:07:45.533Z,10.50
2023-11-04T16:10:13.959Z,13.43
2023-11-04T16:12:41.607Z,19.67
2023-11-04T16:15:09.627Z,20.90
2023-11-04T16:17:37.728Z,22.37
2023-11-04T16:20:05.219Z,20.53
2023-11-04T16:22:32.696Z,11.77
2023-11-04T16:25:00.008Z,11.70
2023-11-04T16:27:27.916Z,11.77
2023-11-04T16:29:55.357Z,12.63
2023-11-04T16:32:23.043Z,11.10
2023-11-04T16:34:52.378Z,13.30
2023-11-04T16:37:19.682Z,12.70
2023-11-04T16:39:47.366Z,13.00
2023-11-04T16:42:14.657Z,10.87
2023-11-04T16:44:41.998Z,9.30
2023-11-04T16:47:10.289Z,8.97
2023-11-04T16:49:38.323Z,9.10
2023-11-04T16:52:06.103Z,8.53
2023-11-04T16:54:33.785Z,7.57
2023-11-04T16:57:01.087Z,6.50
2023-11-04T16:59:28.287Z,7.27
2023-11-04T17:01:55.820Z,7.63
2023-11-04T17:04:23.085Z,7.93
2023-11-04T17:06:50.758Z,8.97
2023-11-04T17:09:19.510Z,9.90
2023-11-04T17:11:47.070Z,10.17
2023-11-04T17:14:14.521Z,10.33
2023-11-04T17:16:43.033Z,8.83
2023-11-04T17:19:11.008Z,8.67
2023-11-04T17:21:38.238Z,8.10
2023-11-04T17:24:05.914Z,8.60
2023-11-04T17:26:35.854Z,12.67
2023-11-04T17:29:03.188Z,10.93
2023-11-04T17:31:30.341Z,8.00
2023-11-04T17:33:57.746Z,6.87
2023-11-04T17:36:24.947Z,7.73
2023-11-04T17:38:52.546Z,7.03
2023-11-04T17:41:19.706Z,7.27
2023-11-04T17:43:48.577Z,8.33
2023-11-04T17:46:16.660Z,7.27
2023-11-04T17:48:43.925Z,7.23
2023-11-04T17:51:11.280Z,7.20
2023-11-04T17:53:38.510Z,7.70
2023-11-04T17:56:06.270Z,7.20
2023-11-04T17:58:33.732Z,7.07
2023-11-04T18:01:00.996Z,6.23
2023-11-04T18:03:28.488Z,7.27
2023-11-04T18:05:55.736Z,7.10
2023-11-04T18:08:23.180Z,7.17
2023-11-04T18:10:50.487Z,7.70
2023-11-04T18:13:17.769Z,7.50
2023-11-04T18:15:45.186Z,7.00
2023-11-04T18:18:12.890Z,8.13
2023-11-04T18:20:40.127Z,6.70
2023-11-04T18:23:07.355Z,5.37
2023-11-04T18:25:34.610Z,6.53
2023-11-04T18:28:05.912Z,7.60
2023-11-04T18:30:33.949Z,7.20
2023-11-04T18:33:01.208Z,7.80
2023-11-04T18:35:28.530Z,7.10
2023-11-04T18:37:55.765Z,8.03
2023-11-04T18:40:23.081Z,7.30
2023-11-04T18:42:50.347Z,7.10
2023-11-04T18:45:17.647Z,6.77
2023-11-04T18:47:45.010Z,7.03
2023-11-04T18:50:12.436Z,7.13
2023-11-04T18:52:39.755Z,6.77
2023-11-04T18:55:07.188Z,6.40
2023-11-04T18:57:35.288Z,7.03
2023-11-04T19:00:02.693Z,5.93
2023-11-04T19:02:29.997Z,6.67
2023-11-04T19:04:57.623Z,7.37
2023-11-04T19:07:24.931Z,7.00
2023-11-04T19:09:52.275Z,7.37
2023-11-04T19:12:19.502Z,7.07
2023-11-04T19:14:46.951Z,7.90
2023-11-04T19:17:14.339Z,8.10
2023-11-04T19:19:41.704Z,7.87
2023-11-04T19:22:08.991Z,7.13
2023-11-04T19:24:36.294Z,8.13
2023-11-04T19:27:03.504Z,7.83
2023-11-04T19:29:30.752Z,8.10
2023-11-04T19:31:58.154Z,7.83
2023-11-04T19:34:25.464Z,6.57
2023-11-04T19:36:52.806Z,7.37
2023-11-04T19:39:20.129Z,6.47
2023-11-04T19:41:48.404Z,6.83
2023-11-04T19:44:15.588Z,6.43
2023-11-04T19:46:45.764Z,7.10
2023-11-04T19:49:13.067Z,6.73
2023-11-04T19:51:40.301Z,6.77
2023-11-04T19:54:07.655Z,6.30
2023-11-04T19:56:34.881Z,5.93
2023-11-04T19:59:02.070Z,6.23
2023-11-04T20:01:30.882Z,5.73
2023-11-04T20:03:58.506Z,5.73
2023-11-04T20:06:25.833Z,5.20
2023-11-04T20:08:53.133Z,5.27
2023-11-04T20:11:21.727Z,5.47
2023-11-04T20:13:49.751Z,6.03
2023-11-04T20:16:17.459Z,5.90
2023-11-04T20:18:44.997Z,6.00
2023-11-04T20:21:12.283Z,6.07
2023-11-04T20:23:39.643Z,6.80
2023-11-04T20:26:07.779Z,6.40
2023-11-04T20:28:34.994Z,6.10
2023-11-04T20:31:02.361Z,6.90
2023-11-04T20:33:29.613Z,6.30
2023-11-04T20:35:57.013Z,6.73
2023-11-04T20:38:24.268Z,7.13
2023-11-04T20:40:52.114Z,6.47
2023-11-04T20:43:19.588Z,7.27
2023-11-04T20:45:46.807Z,6.63
2023-11-04T20:48:14.183Z,6.50
2023-11-04T20:50:41.628Z,7.27
2023-11-04T20:53:08.804Z,6.73
2023-11-04T20:55:35.950Z,7.23
2023-11-04T20:58:03.235Z,6.70
2023-11-04T21:00:30.563Z,7.43
2023-11-04T21:02:58.046Z,7.63
2023-11-04T21:05:25.429Z,6.93
2023-11-04T21:07:52.596Z,8.47
2023-11-04T21:10:19.943Z,7.33
2023-11-04T21:12:47.381Z,6.50
2023-11-04T21:15:17.643Z,6.70
2023-11-04T21:17:44.932Z,6.87
2023-11-04T21:20:13.807Z,5.37
2023-11-04T21:22:41.031Z,5.37
2023-11-04T21:25:09.966Z,6.20
2023-11-04T21:27:40.817Z,5.97
2023-11-04T21:30:08.666Z,6.33
2023-11-04T21:32:36.389Z,5.70
2023-11-04T21:35:03.848Z,5.87
2023-11-04T21:37:36.741Z,6.70
2023-11-04T21:40:04.288Z,5.70
2023-11-04T21:42:31.476Z,6.23
2023-11-04T21:44:58.689Z,5.13
2023-11-04T21:47:26.430Z,5.80
2023-11-04T21:49:54.114Z,5.70
2023-11-04T21:52:21.379Z,4.43
2023-11-04T21:54:48.659Z,5.00
2023-11-04T21:57:16.161Z,5.67
2023-11-04T21:59:43.365Z,5.03
2023-11-04T22:02:10.596Z,5.50
2023-11-04T22:04:38.219Z,5.40
2023-11-04T22:07:05.712Z,5.17
2023-11-04T22:09:32.966Z,5.13
2023-11-04T22:12:00.411Z,5.07
2023-11-04T22:14:27.739Z,4.47
2023-11-04T22:16:54.970Z,5.23
2023-11-04T22:19:22.609Z,5.07
2023-11-04T22:21:50.119Z,5.00
2023-11-04T22:24:17.442Z,4.77
2023-11-04T22:26:50.134Z,4.90
2023-11-04T22:29:17.676Z,4.90
2023-11-04T22:31:44.947Z,4.93
2023-11-04T22:34:12.228Z,4.20
2023-11-04T22:36:40.072Z,4.63
2023-11-04T22:39:12.086Z,4.13
2023-11-04T22:41:39.916Z,5.50
2023-11-04T22:44:07.290Z,4.57
2023-11-04T22:46:34.589Z,4.50
2023-11-04T22:49:02.080Z,4.67
2023-11-04T22:51:29.497Z,4.73
2023-11-04T22:53:56.777Z,5.00
2023-11-04T22:56:24.307Z,4.50
2023-11-04T22:58:51.665Z,4.10
2023-11-04T23:01:20.999Z,4.00
2023-11-04T23:03:52.325Z,3.80
2023-11-04T23:06:19.902Z,3.93
2023-11-04T23:08:47.150Z,4.07
2023-11-04T23:11:14.324Z,4.60
2023-11-04T23:13:41.724Z,4.30
2023-11-04T23:16:09.222Z,3.70
2023-11-04T23:18:36.522Z,4.63
2023-11-04T23:21:04.146Z,4.07
2023-11-04T23:23:31.289Z,4.47
2023-11-04T23:25:58.521Z,3.73
2023-11-04T23:28:26.192Z,3.83
2023-11-04T23:30:53.378Z,3.67
2023-11-04T23:33:20.679Z,4.07
2023-11-04T23:35:48.766Z,3.87
2023-11-04T23:38:16.034Z,4.33
2023-11-04T23:40:43.554Z,4.13
2023-11-04T23:43:10.912Z,4.10
2023-11-04T23:45:38.595Z,3.73
2023-11-04T23:48:05.965Z,4.10
2023-11-04T23:50:33.196Z,3.60
2023-11-04T23:53:01.154Z,4.20
2023-11-04T23:55:28.956Z,4.10
2023-11-04T23:57:56.487Z,3.83
